createdAt,value
2016-05-05T00:00:52.086Z,1020.37
2016-05-05T00:01:52.057Z,1020.37
2016-05-05T00:02:52.029Z,1020.39
2016-05-05T00:03:52.000Z,1020.36
2016-05-05T00:04:51.972Z,1020.33
2016-05-05T00:05:51.942Z,1020.28
2016-05-05T00:06:51.930Z,1020.32
2016-05-05T00:07:51.902Z,1020.28
2016-05-05T00:08:51.872Z,1020.31
2016-05-05T00:09:51.845Z,1020.3
2016-05-05T00:10:51.816Z,1020.3
2016-05-05T00:11:51.803Z,1020.35
2016-05-05T00:12:51.758Z,1020.32
2016-05-05T00:13:51.746Z,1020.31
2016-05-05T00:14:51.717Z,1020.3
2016-05-05T00:15:51.704Z,1020.29
2016-05-05T00:16:51.660Z,1020.26
2016-05-05T00:17:51.662Z,1020.26
2016-05-05T00:18:51.619Z,1020.23
2016-05-05T00:19:51.574Z,1020.28
2016-05-05T00:20:51.546Z,1020.28
2016-05-05T00:21:51.518Z,1020.28
2016-05-05T00:22:51.504Z,1020.24
2016-05-05T00:23:51.476Z,1020.28
2016-05-05T00:24:51.651Z,1020.28
2016-05-05T00:25:51.418Z,1020.26
2016-05-05T00:26:51.390Z,1020.33
2016-05-05T00:27:51.362Z,1020.27
2016-05-05T00:28:51.333Z,1020.28
2016-05-05T00:29:51.320Z,1020.24
2016-05-05T00:30:51.291Z,1020.26
2016-05-05T00:31:51.263Z,1020.26
2016-05-05T00:32:51.234Z,1020.23
2016-05-05T00:33:51.205Z,1020.24
2016-05-05T00:34:51.178Z,1020.29
2016-05-05T00:35:51.164Z,1020.25
2016-05-05T00:36:51.136Z,1020.26
2016-05-05T00:37:51.108Z,1020.22
2016-05-05T00:38:51.078Z,1020.25
2016-05-05T00:39:51.238Z,1020.24
2016-05-05T00:40:51.021Z,1020.24
2016-05-05T00:41:51.008Z,1020.25
2016-05-05T00:42:50.964Z,1020.24
2016-05-05T00:43:50.952Z,1020.22
2016-05-05T00:44:50.922Z,1020.24
2016-05-05T00:45:50.894Z,1020.22
2016-05-05T00:46:50.865Z,1020.19
2016-05-05T00:47:50.838Z,1020.22
2016-05-05T00:48:50.808Z,1020.19
2016-05-05T00:49:50.780Z,1020.19
2016-05-05T00:50:50.751Z,1020.15
2016-05-05T00:51:50.724Z,1020.22
2016-05-05T00:52:50.710Z,1020.18
2016-05-05T00:53:50.682Z,1020.24
2016-05-05T00:54:50.653Z,1020.19
2016-05-05T00:55:50.624Z,1020.2
2016-05-05T00:56:50.596Z,1020.18
2016-05-05T00:57:50.568Z,1020.2
2016-05-05T00:58:50.540Z,1020.19
2016-05-05T00:59:50.510Z,1020.18
2016-05-05T01:00:50.481Z,1020.17
2016-05-05T01:01:50.484Z,1020.15
2016-05-05T01:02:50.440Z,1020.17
2016-05-05T01:03:50.411Z,1020.19
2016-05-05T01:04:50.383Z,1020.18
2016-05-05T01:05:50.354Z,1020.13
2016-05-05T01:06:50.326Z,1020.16
2016-05-05T01:07:50.297Z,1020.17
2016-05-05T01:08:50.269Z,1020.19
2016-05-05T01:09:50.255Z,1020.18
2016-05-05T01:10:50.227Z,1020.14
2016-05-05T01:11:50.199Z,1020.13
2016-05-05T01:12:50.185Z,1020.16
2016-05-05T01:13:50.141Z,1020.16
2016-05-05T01:14:50.113Z,1020.16
2016-05-05T01:15:50.085Z,1020.15
2016-05-05T01:16:50.056Z,1020.12
2016-05-05T01:17:50.027Z,1020.16
2016-05-05T01:18:49.999Z,1020.15
2016-05-05T01:19:49.985Z,1020.14
2016-05-05T01:20:49.957Z,1020.09
2016-05-05T01:21:49.929Z,1020.14
2016-05-05T01:22:49.900Z,1020.1
2016-05-05T01:23:49.871Z,1020.08
2016-05-05T01:24:49.859Z,1020.09
2016-05-05T01:25:49.815Z,1020.09
2016-05-05T01:26:49.786Z,1020.08
2016-05-05T01:27:49.773Z,1020.09
2016-05-05T01:28:49.729Z,1020.06
2016-05-05T01:29:49.700Z,1020.11
2016-05-05T01:30:49.671Z,1020.08
2016-05-05T01:31:49.659Z,1020.06
2016-05-05T01:32:49.631Z,1020.06
2016-05-05T01:33:49.601Z,1020.05
2016-05-05T01:34:49.573Z,1020.04
2016-05-05T01:35:49.545Z,1020.07
2016-05-05T01:36:49.517Z,1020.06
2016-05-05T01:37:49.487Z,1020.11
2016-05-05T01:38:49.459Z,1020.09
2016-05-05T01:39:49.430Z,1020.09
2016-05-05T01:40:49.402Z,1020.09
2016-05-05T01:41:49.389Z,1020.06
2016-05-05T01:42:49.345Z,1020.07
2016-05-05T01:43:49.331Z,1020.06
2016-05-05T01:44:49.303Z,1020.08
2016-05-05T01:45:49.275Z,1020.05
2016-05-05T01:46:49.246Z,1020.04
2016-05-05T01:47:49.216Z,1020.06
2016-05-05T01:48:49.188Z,1020.06
2016-05-05T01:49:49.160Z,1020.07
2016-05-05T01:50:49.132Z,1020.11
2016-05-05T01:51:49.119Z,1020.07
2016-05-05T01:52:49.095Z,1020.09
2016-05-05T01:53:49.109Z,1020.08
2016-05-05T01:54:49.124Z,1020.08
2016-05-05T01:55:49.153Z,1020.08
2016-05-05T01:56:49.167Z,1020.07
2016-05-05T01:57:49.168Z,1020.05
2016-05-05T01:58:49.154Z,1020.07
2016-05-05T01:59:49.141Z,1020.06
2016-05-05T02:00:49.128Z,1020.05
2016-05-05T02:01:49.116Z,1020.09
2016-05-05T02:02:49.097Z,1020.08
2016-05-05T02:03:49.075Z,1020.1
2016-05-05T02:04:52.910Z,1020.12
2016-05-05T02:05:52.889Z,1020.1
2016-05-05T02:06:52.866Z,1020.1
2016-05-05T02:07:52.840Z,1020.1
2016-05-05T02:08:52.814Z,1020.03
2016-05-05T02:09:52.788Z,1020.04
2016-05-05T02:10:52.776Z,1020.01
2016-05-05T02:11:52.733Z,1020.04
2016-05-05T02:12:52.723Z,1020.02
2016-05-05T02:13:52.680Z,1020.01
2016-05-05T02:14:52.666Z,1020
2016-05-05T02:15:52.624Z,1020.01
2016-05-05T02:16:52.595Z,1020.02
2016-05-05T02:17:52.568Z,1020.07
2016-05-05T02:18:52.555Z,1020.05
2016-05-05T02:19:52.527Z,1020.07
2016-05-05T02:20:52.499Z,1020.02
2016-05-05T02:21:52.471Z,1020.05
2016-05-05T02:22:52.443Z,1020.06
2016-05-05T02:23:52.400Z,1020.06
2016-05-05T02:24:52.387Z,1020.04
2016-05-05T02:25:52.359Z,1020.05
2016-05-05T02:26:52.329Z,1020.06
2016-05-05T02:27:52.301Z,1020.06
2016-05-05T02:28:52.273Z,1020.08
2016-05-05T02:29:52.245Z,1020.1
2016-05-05T02:30:52.216Z,1020.06
2016-05-05T02:31:52.187Z,1020.08
2016-05-05T02:32:52.159Z,1020.09
2016-05-05T02:33:52.130Z,1020.04
2016-05-05T02:34:52.101Z,1020.05
2016-05-05T02:35:52.073Z,1020.06
2016-05-05T02:36:52.044Z,1020.05
2016-05-05T02:37:52.016Z,1020.05
2016-05-05T02:38:51.987Z,1020.05
2016-05-05T02:39:51.975Z,1020.02
2016-05-05T02:40:51.946Z,1020.02
2016-05-05T02:41:51.917Z,1020.06
2016-05-05T02:42:51.889Z,1019.99
2016-05-05T02:43:51.844Z,1020
2016-05-05T02:44:51.832Z,1020.04
2016-05-05T02:45:51.819Z,1020.03
2016-05-05T02:46:51.774Z,1020.03
2016-05-05T02:47:51.746Z,1020.04
2016-05-05T02:48:51.717Z,1020.05
2016-05-05T02:49:51.688Z,1020.08
2016-05-05T02:50:51.661Z,1020.03
2016-05-05T02:51:51.632Z,1020.05
2016-05-05T02:52:51.603Z,1020.07
2016-05-05T02:53:51.574Z,1020.05
2016-05-05T02:54:51.546Z,1020.05
2016-05-05T02:55:51.518Z,1020.09
2016-05-05T02:56:51.489Z,1020.09
2016-05-05T02:57:51.460Z,1020.11
2016-05-05T02:58:51.448Z,1020.1
2016-05-05T02:59:51.404Z,1020.12
2016-05-05T03:00:51.375Z,1020.13
2016-05-05T03:01:51.346Z,1020.12
2016-05-05T03:02:51.318Z,1020.1
2016-05-05T03:03:51.289Z,1020.12
2016-05-05T03:04:51.260Z,1020.09
2016-05-05T03:05:51.232Z,1020.12
2016-05-05T03:06:51.203Z,1020.15
2016-05-05T03:07:51.175Z,1020.13
2016-05-05T03:08:51.146Z,1020.17
2016-05-05T03:09:51.118Z,1020.15
2016-05-05T03:10:51.105Z,1020.18
2016-05-05T03:11:51.060Z,1020.14
2016-05-05T03:12:51.031Z,1020.15
2016-05-05T03:13:51.019Z,1020.15
2016-05-05T03:14:50.991Z,1020.16
2016-05-05T03:15:50.946Z,1020.16
2016-05-05T03:16:50.917Z,1020.17
2016-05-05T03:17:50.905Z,1020.16
2016-05-05T03:18:50.861Z,1020.18
2016-05-05T03:19:50.848Z,1020.14
2016-05-05T03:20:50.803Z,1020.1
2016-05-05T03:21:50.774Z,1020.09
2016-05-05T03:22:50.746Z,1020.06
2016-05-05T03:23:50.718Z,1020.12
2016-05-05T03:24:50.689Z,1020.07
2016-05-05T03:25:50.661Z,1020.09
2016-05-05T03:26:50.648Z,1020.11
2016-05-05T03:27:50.604Z,1020.08
2016-05-05T03:28:50.574Z,1020.1
2016-05-05T03:29:50.547Z,1020.14
2016-05-05T03:30:50.518Z,1020.12
2016-05-05T03:31:50.489Z,1020.09
2016-05-05T03:32:50.460Z,1020.1
2016-05-05T03:33:50.432Z,1020.11
2016-05-05T03:34:50.404Z,1020.12
2016-05-05T03:35:50.376Z,1020.13
2016-05-05T03:36:50.346Z,1020.14
2016-05-05T03:37:50.318Z,1020.12
2016-05-05T03:38:50.290Z,1020.1
2016-05-05T03:39:50.261Z,1020.11
2016-05-05T03:40:50.232Z,1020.11
2016-05-05T03:41:50.203Z,1020.16
2016-05-05T03:42:50.175Z,1020.14
2016-05-05T03:43:50.147Z,1020.15
2016-05-05T03:44:50.118Z,1020.16
2016-05-05T03:45:50.089Z,1020.13
2016-05-05T03:46:50.061Z,1020.1
2016-05-05T03:47:50.033Z,1020.08
2016-05-05T03:48:50.004Z,1020.09
2016-05-05T03:49:49.975Z,1020.09
2016-05-05T03:50:49.946Z,1020.11
2016-05-05T03:51:49.918Z,1020.1
2016-05-05T03:52:49.889Z,1020.12
2016-05-05T03:53:49.860Z,1020.11
2016-05-05T03:54:49.832Z,1020.1
2016-05-05T03:55:49.804Z,1020.13
2016-05-05T03:56:49.775Z,1020.13
2016-05-05T03:57:49.747Z,1020.14
2016-05-05T03:58:49.718Z,1020.13
2016-05-05T03:59:49.690Z,1020.1
2016-05-05T04:00:49.660Z,1020.09
2016-05-05T04:01:49.632Z,1020.11
2016-05-05T04:02:49.604Z,1020.09
2016-05-05T04:03:49.575Z,1020.05
2016-05-05T04:04:49.546Z,1020.09
2016-05-05T04:05:49.518Z,1020.1
2016-05-05T04:06:49.490Z,1020.1
2016-05-05T04:07:49.462Z,1020.11
2016-05-05T04:08:49.432Z,1020.08
2016-05-05T04:09:49.404Z,1020.11
2016-05-05T04:10:49.375Z,1020.09
2016-05-05T04:11:49.347Z,1020.09
2016-05-05T04:12:49.318Z,1020.09
2016-05-05T04:13:49.290Z,1020.14
2016-05-05T04:14:49.261Z,1020.13
2016-05-05T04:15:49.233Z,1020.13
2016-05-05T04:16:49.204Z,1020.15
2016-05-05T04:17:49.176Z,1020.12
2016-05-05T04:18:49.147Z,1020.12
2016-05-05T04:19:49.119Z,1020.11
2016-05-05T04:20:49.089Z,1020.12
2016-05-05T04:21:49.061Z,1020.11
2016-05-05T04:22:49.033Z,1020.08
2016-05-05T04:23:49.004Z,1020.07
2016-05-05T04:24:48.991Z,1020.08
2016-05-05T04:25:48.947Z,1020.09
2016-05-05T04:26:48.919Z,1020.08
2016-05-05T04:27:48.891Z,1020.09
2016-05-05T04:28:48.861Z,1020.03
2016-05-05T04:29:48.833Z,1020.03
2016-05-05T04:30:48.804Z,1020.06
2016-05-05T04:31:48.776Z,1020.07
2016-05-05T04:32:48.747Z,1020.05
2016-05-05T04:33:48.718Z,1020.05
2016-05-05T04:34:48.706Z,1020.08
2016-05-05T04:35:48.676Z,1020.06
2016-05-05T04:36:48.633Z,1020.07
2016-05-05T04:37:48.604Z,1020.06
2016-05-05T04:38:48.576Z,1020.04
2016-05-05T04:39:48.860Z,1020.03
2016-05-05T04:40:48.534Z,1020.02
2016-05-05T04:41:48.506Z,1019.99
2016-05-05T04:42:48.478Z,1020.01
2016-05-05T04:43:48.448Z,1020.04
2016-05-05T04:44:48.420Z,1019.99
2016-05-05T04:45:48.392Z,1019.97
2016-05-05T04:46:48.364Z,1019.99
2016-05-05T04:47:48.334Z,1020.06
2016-05-05T04:48:48.305Z,1020.01
2016-05-05T04:49:48.278Z,1020
2016-05-05T04:50:48.264Z,1020.05
2016-05-05T04:51:48.220Z,1020.05
2016-05-05T04:52:48.191Z,1020.06
2016-05-05T04:53:48.164Z,1020.05
2016-05-05T04:54:48.338Z,1020.07
2016-05-05T04:55:48.121Z,1020.1
2016-05-05T04:56:48.094Z,1020.11
2016-05-05T04:57:48.064Z,1020.11
2016-05-05T04:58:48.035Z,1020.1
2016-05-05T04:59:48.008Z,1020.1
2016-05-05T05:00:47.979Z,1020.13
2016-05-05T05:01:47.950Z,1020.14
2016-05-05T05:02:47.922Z,1020.12
2016-05-05T05:03:47.893Z,1020.13
2016-05-05T05:04:47.864Z,1020.12
2016-05-05T05:05:47.851Z,1020.08
2016-05-05T05:06:47.824Z,1020.09
2016-05-05T05:07:47.795Z,1020.08
2016-05-05T05:08:47.766Z,1020.04
2016-05-05T05:09:47.737Z,1020.06
2016-05-05T05:10:47.709Z,1020.03
2016-05-05T05:11:47.680Z,1020.04
2016-05-05T05:12:47.652Z,1020.02
2016-05-05T05:13:47.623Z,1020.03
2016-05-05T05:14:47.610Z,1020.01
2016-05-05T05:15:47.582Z,1020.04
2016-05-05T05:16:47.553Z,1020.03
2016-05-05T05:17:47.524Z,1020.03
2016-05-05T05:18:47.495Z,1020
2016-05-05T05:19:47.467Z,1020.05
2016-05-05T05:20:47.439Z,1020.03
2016-05-05T05:21:47.426Z,1020.05
2016-05-05T05:22:47.381Z,1020.04
2016-05-05T05:23:47.353Z,1020.06
2016-05-05T05:24:47.341Z,1020.05
2016-05-05T05:25:47.311Z,1020.02
2016-05-05T05:26:47.283Z,1020.02
2016-05-05T05:27:47.254Z,1020.01
2016-05-05T05:28:47.226Z,1019.97
2016-05-05T05:29:47.197Z,1020.04
2016-05-05T05:30:47.169Z,1020.02
2016-05-05T05:31:47.140Z,1020.01
2016-05-05T05:32:47.127Z,1019.97
2016-05-05T05:33:47.099Z,1020.01
2016-05-05T05:34:47.070Z,1019.98
2016-05-05T05:35:47.041Z,1020.03
2016-05-05T05:36:47.013Z,1020
2016-05-05T05:37:46.984Z,1020.02
2016-05-05T05:38:46.956Z,1020.05
2016-05-05T05:39:46.927Z,1020.04
2016-05-05T05:40:46.899Z,1020.07
2016-05-05T05:41:46.886Z,1020.01
2016-05-05T05:42:46.857Z,1020.02
2016-05-05T05:43:46.828Z,1020.09
2016-05-05T05:44:46.800Z,1020.11
2016-05-05T05:45:46.772Z,1020.1
2016-05-05T05:46:46.759Z,1020.08
2016-05-05T05:47:46.730Z,1020.12
2016-05-05T05:48:46.701Z,1020.14
2016-05-05T05:49:46.673Z,1020.11
2016-05-05T05:50:46.644Z,1020.12
2016-05-05T05:51:46.616Z,1020.08
2016-05-05T05:52:46.587Z,1020.09
2016-05-05T05:53:46.558Z,1020.13
2016-05-05T05:54:46.546Z,1020.11
2016-05-05T05:55:46.517Z,1020.14
2016-05-05T05:56:46.488Z,1020.14
2016-05-05T05:57:46.460Z,1020.18
2016-05-05T05:58:46.432Z,1020.13
2016-05-05T05:59:46.419Z,1020.1
2016-05-05T06:00:46.390Z,1020.14
2016-05-05T06:01:46.361Z,1020.14
2016-05-05T06:02:46.332Z,1020.17
2016-05-05T06:03:46.304Z,1020.13
2016-05-05T06:04:46.291Z,1020.14
2016-05-05T06:05:46.263Z,1020.12
2016-05-05T06:06:46.235Z,1020.12
2016-05-05T06:07:46.206Z,1020.11
2016-05-05T06:08:46.176Z,1020.08
2016-05-05T06:09:47.007Z,1020.08
2016-05-05T06:10:46.136Z,1020.09
2016-05-05T06:11:46.107Z,1020.08
2016-05-05T06:12:46.078Z,1020.13
2016-05-05T06:13:46.050Z,1020.1
2016-05-05T06:14:46.037Z,1020.11
2016-05-05T06:15:46.008Z,1020.13
2016-05-05T06:16:45.980Z,1020.07
2016-05-05T06:17:45.951Z,1020.1
2016-05-05T06:18:45.938Z,1020.11
2016-05-05T06:19:45.909Z,1020.1
2016-05-05T06:20:45.881Z,1020.08
2016-05-05T06:21:45.853Z,1020.07
2016-05-05T06:22:45.824Z,1020.07
2016-05-05T06:23:45.805Z,1020.11
2016-05-05T06:24:45.793Z,1020.09
2016-05-05T06:25:45.748Z,1020.08
2016-05-05T06:26:45.720Z,1020.05
2016-05-05T06:27:45.707Z,1020.08
2016-05-05T06:28:45.678Z,1020.08
2016-05-05T06:29:45.649Z,1020.08
2016-05-05T06:30:45.637Z,1020.05
2016-05-05T06:31:45.608Z,1020.06
2016-05-05T06:32:45.580Z,1020.11
2016-05-05T06:33:45.551Z,1020.06
2016-05-05T06:34:45.538Z,1020.07
2016-05-05T06:35:45.509Z,1020.06
2016-05-05T06:36:45.481Z,1020.06
2016-05-05T06:37:45.453Z,1020.04
2016-05-05T06:38:45.439Z,1020.03
2016-05-05T06:39:45.411Z,1020.04
2016-05-05T06:40:45.382Z,1020.02
2016-05-05T06:41:45.369Z,1020.02
2016-05-05T06:42:45.342Z,1020
2016-05-05T06:43:45.312Z,1020.03
2016-05-05T06:44:45.284Z,1020.04
2016-05-05T06:45:45.270Z,1020.02
2016-05-05T06:46:45.242Z,1020.06
2016-05-05T06:47:45.214Z,1020.07
2016-05-05T06:48:45.200Z,1020.08
2016-05-05T06:49:45.188Z,1020.08
2016-05-05T06:50:45.159Z,1020
2016-05-05T06:51:45.130Z,1020.03
2016-05-05T06:52:45.102Z,1020.04
2016-05-05T06:53:45.074Z,1020.05
2016-05-05T06:54:45.061Z,1020.1
2016-05-05T06:55:45.032Z,1020.07
2016-05-05T06:56:45.019Z,1020.04
2016-05-05T06:57:44.991Z,1020.1
2016-05-05T06:58:44.977Z,1020.1
2016-05-05T06:59:44.949Z,1020.14
2016-05-05T07:00:44.920Z,1020.14
2016-05-05T07:01:44.908Z,1020.14
2016-05-05T07:02:44.879Z,1020.18
2016-05-05T07:03:44.866Z,1020.13
2016-05-05T07:04:44.854Z,1020.12
2016-05-05T07:05:44.825Z,1020.09
2016-05-05T07:06:44.796Z,1020.07
2016-05-05T07:07:44.784Z,1020.05
2016-05-05T07:08:44.770Z,1020.09
2016-05-05T07:09:44.757Z,1020.07
2016-05-05T07:10:44.729Z,1020.06
2016-05-05T07:11:44.715Z,1020.04
2016-05-05T07:12:44.703Z,1020.07
2016-05-05T07:13:44.690Z,1020.06
2016-05-05T07:14:44.678Z,1020.02
2016-05-05T07:15:44.648Z,1020.04
2016-05-05T07:16:44.635Z,1020.05
2016-05-05T07:17:44.623Z,1020.05
2016-05-05T07:18:44.609Z,1020.05
2016-05-05T07:19:44.597Z,1020.04
2016-05-05T07:20:44.583Z,1020.03
2016-05-05T07:21:44.571Z,1020.04
2016-05-05T07:22:44.558Z,1020.05
2016-05-05T07:23:44.544Z,1020.07
2016-05-05T07:24:44.532Z,1020.06
2016-05-05T07:25:44.519Z,1020.08
2016-05-05T07:26:44.506Z,1020.02
2016-05-05T07:27:44.493Z,1020.04
2016-05-05T07:28:44.480Z,1020.01
2016-05-05T07:29:44.483Z,1019.99
2016-05-05T07:30:44.455Z,1020.01
2016-05-05T07:31:44.457Z,1019.99
2016-05-05T07:32:44.444Z,1020.01
2016-05-05T07:33:44.432Z,1019.98
2016-05-05T07:34:44.418Z,1019.99
2016-05-05T07:35:44.405Z,1019.98
2016-05-05T07:36:44.393Z,1019.94
2016-05-05T07:37:44.395Z,1019.96
2016-05-05T07:38:44.382Z,1019.94
2016-05-05T07:39:44.369Z,1019.94
2016-05-05T07:40:44.357Z,1019.97
2016-05-05T07:41:44.343Z,1019.97
2016-05-05T07:42:44.345Z,1019.99
2016-05-05T07:43:44.349Z,1019.94
2016-05-05T07:44:44.320Z,1019.94
2016-05-05T07:45:44.307Z,1019.92
2016-05-05T07:46:44.309Z,1019.9
2016-05-05T07:47:44.297Z,1019.86
2016-05-05T07:48:44.300Z,1019.85
2016-05-05T07:49:44.286Z,1019.88
2016-05-05T07:50:44.275Z,1019.86
2016-05-05T07:51:44.292Z,1019.88
2016-05-05T07:52:44.264Z,1019.88
2016-05-05T07:53:44.250Z,1019.85
2016-05-05T07:54:44.238Z,1019.87
2016-05-05T07:55:44.224Z,1019.89
2016-05-05T07:56:44.227Z,1019.85
2016-05-05T07:57:44.214Z,1019.82
2016-05-05T07:58:44.217Z,1019.83
2016-05-05T07:59:44.205Z,1019.75
2016-05-05T08:00:44.191Z,1019.76
2016-05-05T08:01:44.194Z,1019.79
2016-05-05T08:02:44.181Z,1019.8
2016-05-05T08:03:44.168Z,1019.73
2016-05-05T08:04:44.171Z,1019.77
2016-05-05T08:05:44.158Z,1019.79
2016-05-05T08:06:44.161Z,1019.8
2016-05-05T08:07:44.148Z,1019.79
2016-05-05T08:08:44.134Z,1019.76
2016-05-05T08:09:44.138Z,1019.72
2016-05-05T08:10:44.124Z,1019.73
2016-05-05T08:11:44.127Z,1019.76
2016-05-05T08:12:44.114Z,1019.7
2016-05-05T08:13:44.117Z,1019.71
2016-05-05T08:14:44.104Z,1019.73
2016-05-05T08:15:44.092Z,1019.78
2016-05-05T08:16:44.094Z,1019.72
2016-05-05T08:17:44.080Z,1019.71
2016-05-05T08:18:44.084Z,1019.72
2016-05-05T08:19:44.070Z,1019.7
2016-05-05T08:20:44.058Z,1019.66
2016-05-05T08:21:44.061Z,1019.67
2016-05-05T08:22:44.064Z,1019.69
2016-05-05T08:23:44.050Z,1019.63
2016-05-05T08:24:44.037Z,1019.61
2016-05-05T08:25:44.039Z,1019.66
2016-05-05T08:26:44.042Z,1019.68
2016-05-05T08:27:44.030Z,1019.65
2016-05-05T08:28:44.017Z,1019.62
2016-05-05T08:29:44.019Z,1019.6
2016-05-05T08:30:44.007Z,1019.62
2016-05-05T08:31:44.010Z,1019.54
2016-05-05T08:32:43.996Z,1019.54
2016-05-05T08:33:43.999Z,1019.53
2016-05-05T08:34:43.986Z,1019.53
2016-05-05T08:35:43.988Z,1019.5
2016-05-05T08:36:43.976Z,1019.52
2016-05-05T08:37:43.979Z,1019.52
2016-05-05T08:38:43.965Z,1019.47
2016-05-05T08:39:44.859Z,1019.47
2016-05-05T08:40:43.954Z,1019.44
2016-05-05T08:41:43.957Z,1019.48
2016-05-05T08:42:43.945Z,1019.41
2016-05-05T08:43:43.948Z,1019.38
2016-05-05T08:44:43.934Z,1019.41
2016-05-05T08:45:43.938Z,1019.4
2016-05-05T08:46:43.925Z,1019.37
2016-05-05T08:47:43.911Z,1019.39
2016-05-05T08:48:43.898Z,1019.4
2016-05-05T08:49:43.886Z,1019.39
2016-05-05T08:50:43.889Z,1019.39
2016-05-05T08:51:43.875Z,1019.27
2016-05-05T08:52:43.862Z,1019.27
2016-05-05T08:53:43.850Z,1019.3
2016-05-05T08:54:43.852Z,1019.36
2016-05-05T08:55:43.839Z,1019.27
2016-05-05T08:56:43.827Z,1019.25
2016-05-05T08:57:43.814Z,1019.29
2016-05-05T08:58:43.800Z,1019.24
2016-05-05T08:59:43.787Z,1019.27
2016-05-05T09:00:43.775Z,1019.23
2016-05-05T09:01:43.762Z,1019.21
2016-05-05T09:02:43.748Z,1019.2
2016-05-05T09:03:43.736Z,1019.21
2016-05-05T09:04:43.723Z,1019.16
2016-05-05T09:05:43.710Z,1019.22
2016-05-05T09:06:43.696Z,1019.22
2016-05-05T09:07:43.684Z,1019.19
2016-05-05T09:08:43.671Z,1019.23
2016-05-05T09:09:43.658Z,1019.22
2016-05-05T09:10:43.629Z,1019.21
2016-05-05T09:11:43.617Z,1019.22
2016-05-05T09:12:43.604Z,1019.22
2016-05-05T09:13:43.591Z,1019.18
2016-05-05T09:14:43.578Z,1019.17
2016-05-05T09:15:43.549Z,1019.09
2016-05-05T09:16:43.537Z,1019.06
2016-05-05T09:17:43.524Z,1019.06
2016-05-05T09:18:43.510Z,1019.02
2016-05-05T09:19:43.482Z,1018.99
2016-05-05T09:20:43.469Z,1019
2016-05-05T09:21:43.456Z,1019.02
2016-05-05T09:22:43.428Z,1019
2016-05-05T09:23:43.414Z,1019.01
2016-05-05T09:24:43.402Z,1019.02
2016-05-05T09:25:43.388Z,1018.98
2016-05-05T09:26:43.361Z,1019.03
2016-05-05T09:27:43.347Z,1019.05
2016-05-05T09:28:43.334Z,1018.98
2016-05-05T09:29:43.324Z,1018.92
2016-05-05T09:30:43.279Z,1018.94
2016-05-05T09:31:43.270Z,1018.88
2016-05-05T09:32:43.875Z,1018.89
2016-05-05T09:33:43.231Z,1018.91
2016-05-05T09:34:43.218Z,1018.89
2016-05-05T09:35:43.189Z,1018.82
2016-05-05T09:36:43.177Z,1018.86
2016-05-05T09:37:43.163Z,1018.82
2016-05-05T09:38:43.149Z,1018.83
2016-05-05T09:39:43.122Z,1018.84
2016-05-05T09:40:43.109Z,1018.83
2016-05-05T09:41:43.096Z,1018.81
2016-05-05T09:42:43.062Z,1018.88
2016-05-05T09:43:43.049Z,1018.88
2016-05-05T09:44:43.036Z,1018.87
2016-05-05T09:45:43.006Z,1018.83
2016-05-05T09:46:43.213Z,1018.81
2016-05-05T09:47:43.856Z,1018.79
2016-05-05T09:48:42.953Z,1018.79
2016-05-05T09:49:42.940Z,1018.81
2016-05-05T09:50:42.911Z,1018.72
2016-05-05T09:51:42.898Z,1018.76
2016-05-05T09:52:42.886Z,1018.74
2016-05-05T09:53:42.856Z,1018.79
2016-05-05T09:54:44.203Z,1018.79
2016-05-05T09:55:42.831Z,1018.86
2016-05-05T09:56:42.802Z,1018.81
2016-05-05T09:57:42.789Z,1018.79
2016-05-05T09:58:42.792Z,1018.79
2016-05-05T09:59:42.747Z,1018.81
2016-05-05T10:00:42.735Z,1018.74
2016-05-05T10:01:42.722Z,1018.71
2016-05-05T10:02:42.693Z,1018.66
2016-05-05T10:03:42.680Z,1018.7
2016-05-05T10:04:42.651Z,1018.65
2016-05-05T10:05:42.638Z,1018.62
2016-05-05T10:06:42.626Z,1018.71
2016-05-05T10:07:42.598Z,1018.66
2016-05-05T10:08:42.584Z,1018.56
2016-05-05T10:09:42.556Z,1018.65
2016-05-05T10:10:42.543Z,1018.59
2016-05-05T10:11:42.529Z,1018.57
2016-05-05T10:12:42.502Z,1018.58
2016-05-05T10:13:42.489Z,1018.58
2016-05-05T10:14:42.475Z,1018.49
2016-05-05T10:15:42.448Z,1018.46
2016-05-05T10:16:42.434Z,1018.45
2016-05-05T10:17:42.405Z,1018.41
2016-05-05T10:18:42.393Z,1018.43
2016-05-05T10:19:42.380Z,1018.4
2016-05-05T10:20:42.366Z,1018.37
2016-05-05T10:21:42.354Z,1018.29
2016-05-05T10:22:42.325Z,1018.34
2016-05-05T10:23:42.297Z,1018.32
2016-05-05T10:24:42.283Z,1018.33
2016-05-05T10:25:42.271Z,1018.33
2016-05-05T10:26:42.242Z,1018.25
2016-05-05T10:27:42.636Z,1018.27
2016-05-05T10:28:42.216Z,1018.31
2016-05-05T10:29:42.188Z,1018.28
2016-05-05T10:30:42.174Z,1018.32
2016-05-05T10:31:42.162Z,1018.31
2016-05-05T10:32:42.134Z,1018.3
2016-05-05T10:33:42.121Z,1018.22
2016-05-05T10:34:42.108Z,1018.28
2016-05-05T10:35:42.079Z,1018.29
2016-05-05T10:36:42.066Z,1018.34
2016-05-05T10:37:42.054Z,1018.26
2016-05-05T10:38:42.040Z,1018.29
2016-05-05T10:39:42.012Z,1018.23
2016-05-05T10:40:41.998Z,1018.24
2016-05-05T10:41:41.970Z,1018.23
2016-05-05T10:42:41.957Z,1018.21
2016-05-05T10:43:41.945Z,1018.19
2016-05-05T10:44:41.915Z,1018.12
2016-05-05T10:45:41.903Z,1018.09
2016-05-05T10:46:41.874Z,1018.09
2016-05-05T10:47:41.862Z,1018.09
2016-05-05T10:48:41.833Z,1018.05
2016-05-05T10:49:41.820Z,1018.11
2016-05-05T10:50:41.806Z,1018.09
2016-05-05T10:51:41.778Z,1018.01
2016-05-05T10:52:41.765Z,1018.03
2016-05-05T10:53:41.752Z,1017.97
2016-05-05T10:54:41.724Z,1017.94
2016-05-05T10:55:41.711Z,1017.91
2016-05-05T10:56:43.620Z,1017.91
2016-05-05T10:57:41.669Z,1017.86
2016-05-05T10:58:41.688Z,1017.77
2016-05-05T10:59:41.719Z,1017.84
2016-05-05T11:00:41.734Z,1017.84
2016-05-05T11:01:42.312Z,1017.85
2016-05-05T11:02:41.795Z,1017.84
2016-05-05T11:03:41.790Z,1017.79
2016-05-05T11:04:41.793Z,1017.8
2016-05-05T11:05:41.796Z,1017.88
2016-05-05T11:06:41.799Z,1017.86
2016-05-05T11:07:41.786Z,1017.86
2016-05-05T11:08:41.767Z,1017.79
2016-05-05T11:09:41.759Z,1017.82
2016-05-05T11:10:41.751Z,1017.73
2016-05-05T11:11:41.728Z,1017.77
2016-05-05T11:12:41.721Z,1017.81
2016-05-05T11:13:41.710Z,1017.71
2016-05-05T11:14:41.684Z,1017.7
2016-05-05T11:15:41.672Z,1017.71
2016-05-05T11:16:41.661Z,1017.64
2016-05-05T11:17:41.634Z,1017.61
2016-05-05T11:18:41.624Z,1017.65
2016-05-05T11:19:41.595Z,1017.64
2016-05-05T11:20:41.583Z,1017.63
2016-05-05T11:21:41.571Z,1017.58
2016-05-05T11:22:41.590Z,1017.53
2016-05-05T11:23:41.527Z,1017.53
2016-05-05T11:24:41.515Z,1017.56
2016-05-05T11:25:41.502Z,1017.52
2016-05-05T11:26:41.474Z,1017.54
2016-05-05T11:27:41.461Z,1017.48
2016-05-05T11:28:41.449Z,1017.51
2016-05-05T11:29:41.436Z,1017.5
2016-05-05T11:30:41.407Z,1017.47
2016-05-05T11:31:41.395Z,1017.49
2016-05-05T11:32:41.367Z,1017.52
2016-05-05T11:33:41.353Z,1017.43
2016-05-05T11:34:41.340Z,1017.44
2016-05-05T11:35:41.311Z,1017.45
2016-05-05T11:36:41.314Z,1017.34
2016-05-05T11:37:41.285Z,1017.36
2016-05-05T11:38:41.257Z,1017.34
2016-05-05T11:39:41.245Z,1017.41
2016-05-05T11:40:41.232Z,1017.43
2016-05-05T11:41:41.203Z,1017.38
2016-05-05T11:42:41.190Z,1017.32
2016-05-05T11:43:41.177Z,1017.32
2016-05-05T11:44:41.148Z,1017.35
2016-05-05T11:45:41.136Z,1017.3
2016-05-05T11:46:41.123Z,1017.25
2016-05-05T11:47:41.094Z,1017.21
2016-05-05T11:48:41.081Z,1017.24
2016-05-05T11:49:41.068Z,1017.24
2016-05-05T11:50:41.040Z,1017.2
2016-05-05T11:51:41.026Z,1017.27
2016-05-05T11:52:41.014Z,1017.2
2016-05-05T11:53:40.985Z,1017.22
2016-05-05T11:54:40.973Z,1017.18
2016-05-05T11:55:40.960Z,1017.15
2016-05-05T11:56:40.931Z,1017.14
2016-05-05T11:57:40.918Z,1017.11
2016-05-05T11:58:40.905Z,1017.09
2016-05-05T11:59:40.876Z,1017.04
2016-05-05T12:00:40.863Z,1017.02
2016-05-05T12:01:40.834Z,1017.08
2016-05-05T12:02:40.837Z,1017
2016-05-05T12:03:40.809Z,1016.94
2016-05-05T12:04:40.797Z,1017.01
2016-05-05T12:05:40.767Z,1016.9
2016-05-05T12:06:40.755Z,1016.97
2016-05-05T12:07:40.741Z,1016.92
2016-05-05T12:08:40.713Z,1016.92